sensor_id;sensor_type;location;lat;lon;timestamp;P1;durP1;ratioP1;P2;durP2;ratioP2
19257;SDS011;9763;48.780;9.212;2024-02-26T00:00:10;1.73;;;0.80;;
19257;SDS011;9763;48.780;9.212;2024-02-26T00:03:36;1.30;;;1.10;;
19257;SDS011;9763;48.780;9.212;2024-02-26T00:07:03;1.30;;;0.83;;
19257;SDS011;9763;48.780;9.212;2024-02-26T00:10:27;1.40;;;1.00;;
19257;SDS011;9763;48.780;9.212;2024-02-26T00:13:51;1.53;;;0.90;;
19257;SDS011;9763;48.780;9.212;2024-02-26T00:17:16;1.30;;;1.00;;
19257;SDS011;9763;48.780;9.212;2024-02-26T00:20:40;1.70;;;1.10;;
19257;SDS011;9763;48.780;9.212;2024-02-26T00:24:05;1.30;;;0.90;;
19257;SDS011;9763;48.780;9.212;2024-02-26T00:27:29;1.50;;;0.93;;
19257;SDS011;9763;48.780;9.212;2024-02-26T00:30:53;1.57;;;1.10;;
19257;SDS011;9763;48.780;9.212;2024-02-26T00:34:19;2.60;;;1.23;;
19257;SDS011;9763;48.780;9.212;2024-02-26T00:37:43;1.40;;;1.00;;
19257;SDS011;9763;48.780;9.212;2024-02-26T00:41:07;1.20;;;0.90;;
19257;SDS011;9763;48.780;9.212;2024-02-26T00:44:30;1.30;;;0.90;;
19257;SDS011;9763;48.780;9.212;2024-02-26T00:47:54;2.10;;;0.97;;
19257;SDS011;9763;48.780;9.212;2024-02-26T00:51:19;1.40;;;1.00;;
19257;SDS011;9763;48.780;9.212;2024-02-26T00:54:47;1.30;;;1.00;;
19257;SDS011;9763;48.780;9.212;2024-02-26T00:58:11;1.43;;;1.10;;
19257;SDS011;9763;48.780;9.212;2024-02-26T01:01:35;2.57;;;1.00;;
19257;SDS011;9763;48.780;9.212;2024-02-26T01:04:59;1.20;;;0.90;;
19257;SDS011;9763;48.780;9.212;2024-02-26T01:08:25;1.30;;;0.90;;
19257;SDS011;9763;48.780;9.212;2024-02-26T01:11:49;1.30;;;0.80;;
19257;SDS011;9763;48.780;9.212;2024-02-26T01:15:12;1.43;;;0.80;;
19257;SDS011;9763;48.780;9.212;2024-02-26T01:18:36;1.20;;;0.80;;
19257;SDS011;9763;48.780;9.212;2024-02-26T01:22:00;1.20;;;0.80;;
19257;SDS011;9763;48.780;9.212;2024-02-26T01:25:25;1.10;;;0.70;;
19257;SDS011;9763;48.780;9.212;2024-02-26T01:28:49;1.50;;;1.00;;
19257;SDS011;9763;48.780;9.212;2024-02-26T01:32:12;1.20;;;0.73;;
19257;SDS011;9763;48.780;9.212;2024-02-26T01:35:36;1.27;;;0.93;;
19257;SDS011;9763;48.780;9.212;2024-02-26T01:39:00;1.23;;;0.87;;
19257;SDS011;9763;48.780;9.212;2024-02-26T01:42:26;1.20;;;0.83;;
19257;SDS011;9763;48.780;9.212;2024-02-26T01:45:51;1.20;;;0.80;;
19257;SDS011;9763;48.780;9.212;2024-02-26T01:49:14;1.40;;;0.80;;
19257;SDS011;9763;48.780;9.212;2024-02-26T01:52:39;1.60;;;1.00;;
19257;SDS011;9763;48.780;9.212;2024-02-26T01:56:03;1.20;;;0.80;;
19257;SDS011;9763;48.780;9.212;2024-02-26T01:59:28;1.30;;;0.90;;
19257;SDS011;9763;48.780;9.212;2024-02-26T02:02:52;1.30;;;1.00;;
19257;SDS011;9763;48.780;9.212;2024-02-26T02:06:17;1.20;;;0.90;;
19257;SDS011;9763;48.780;9.212;2024-02-26T02:09:42;1.23;;;0.90;;
19257;SDS011;9763;48.780;9.212;2024-02-26T02:13:06;1.20;;;0.87;;
19257;SDS011;9763;48.780;9.212;2024-02-26T02:16:31;1.50;;;1.07;;
19257;SDS011;9763;48.780;9.212;2024-02-26T02:19:55;1.37;;;0.90;;
19257;SDS011;9763;48.780;9.212;2024-02-26T02:23:20;1.30;;;0.87;;
19257;SDS011;9763;48.780;9.212;2024-02-26T02:26:43;1.57;;;0.90;;
19257;SDS011;9763;48.780;9.212;2024-02-26T02:30:08;1.30;;;0.90;;
19257;SDS011;9763;48.780;9.212;2024-02-26T02:33:34;1.40;;;0.90;;
19257;SDS011;9763;48.780;9.212;2024-02-26T02:36:58;1.50;;;0.90;;
19257;SDS011;9763;48.780;9.212;2024-02-26T02:40:23;1.27;;;0.87;;
19257;SDS011;9763;48.780;9.212;2024-02-26T02:43:47;1.87;;;1.00;;
19257;SDS011;9763;48.780;9.212;2024-02-26T02:47:10;1.50;;;0.80;;
19257;SDS011;9763;48.780;9.212;2024-02-26T02:50:34;1.23;;;0.90;;
19257;SDS011;9763;48.780;9.212;2024-02-26T02:53:57;1.20;;;0.80;;
19257;SDS011;9763;48.780;9.212;2024-02-26T02:57:22;1.10;;;0.80;;
19257;SDS011;9763;48.780;9.212;2024-02-26T03:00:46;1.20;;;0.80;;
19257;SDS011;9763;48.780;9.212;2024-02-26T03:04:10;1.30;;;0.80;;
19257;SDS011;9763;48.780;9.212;2024-02-26T03:07:34;1.60;;;1.00;;
19257;SDS011;9763;48.780;9.212;2024-02-26T03:10:58;1.30;;;0.90;;
19257;SDS011;9763;48.780;9.212;2024-02-26T03:14:23;1.37;;;0.80;;
19257;SDS011;9763;48.780;9.212;2024-02-26T03:17:47;1.30;;;1.07;;
19257;SDS011;9763;48.780;9.212;2024-02-26T03:21:11;1.40;;;0.90;;
19257;SDS011;9763;48.780;9.212;2024-02-26T03:24:34;1.20;;;0.80;;
19257;SDS011;9763;48.780;9.212;2024-02-26T03:27:58;1.20;;;0.80;;
19257;SDS011;9763;48.780;9.212;2024-02-26T03:31:23;1.23;;;0.80;;
19257;SDS011;9763;48.780;9.212;2024-02-26T03:34:46;1.30;;;0.80;;
19257;SDS011;9763;48.780;9.212;2024-02-26T03:38:10;1.37;;;1.00;;
19257;SDS011;9763;48.780;9.212;2024-02-26T03:41:34;1.30;;;0.80;;
19257;SDS011;9763;48.780;9.212;2024-02-26T03:44:57;1.40;;;1.00;;
19257;SDS011;9763;48.780;9.212;2024-02-26T03:48:22;1.70;;;1.10;;
19257;SDS011;9763;48.780;9.212;2024-02-26T03:51:46;2.20;;;1.00;;
19257;SDS011;9763;48.780;9.212;2024-02-26T03:55:09;1.40;;;1.00;;
19257;SDS011;9763;48.780;9.212;2024-02-26T03:58:33;1.40;;;0.87;;
19257;SDS011;9763;48.780;9.212;2024-02-26T04:01:56;2.03;;;0.87;;
19257;SDS011;9763;48.780;9.212;2024-02-26T04:05:21;1.30;;;0.80;;
19257;SDS011;9763;48.780;9.212;2024-02-26T04:08:45;1.20;;;0.93;;
19257;SDS011;9763;48.780;9.212;2024-02-26T04:12:08;1.47;;;0.87;;
19257;SDS011;9763;48.780;9.212;2024-02-26T04:15:32;1.37;;;0.80;;
19257;SDS011;9763;48.780;9.212;2024-02-26T04:18:56;1.30;;;1.00;;
19257;SDS011;9763;48.780;9.212;2024-02-26T04:22:21;1.40;;;1.00;;
19257;SDS011;9763;48.780;9.212;2024-02-26T04:25:45;1.40;;;1.13;;
19257;SDS011;9763;48.780;9.212;2024-02-26T04:29:08;2.33;;;1.00;;
19257;SDS011;9763;48.780;9.212;2024-02-26T04:32:32;1.60;;;0.87;;
19257;SDS011;9763;48.780;9.212;2024-02-26T04:35:56;1.73;;;1.07;;
19257;SDS011;9763;48.780;9.212;2024-02-26T04:39:20;1.33;;;0.90;;
19257;SDS011;9763;48.780;9.212;2024-02-26T04:42:44;1.47;;;1.07;;
19257;SDS011;9763;48.780;9.212;2024-02-26T04:46:07;1.70;;;1.10;;
19257;SDS011;9763;48.780;9.212;2024-02-26T04:49:31;1.47;;;1.07;;
19257;SDS011;9763;48.780;9.212;2024-02-26T04:52:55;1.60;;;1.00;;
19257;SDS011;9763;48.780;9.212;2024-02-26T04:56:20;1.20;;;0.90;;
19257;SDS011;9763;48.780;9.212;2024-02-26T04:59:44;1.27;;;0.97;;
19257;SDS011;9763;48.780;9.212;2024-02-26T05:03:08;1.20;;;0.90;;
19257;SDS011;9763;48.780;9.212;2024-02-26T05:06:36;1.10;;;0.80;;
19257;SDS011;9763;48.780;9.212;2024-02-26T05:10:00;1.30;;;0.90;;
19257;SDS011;9763;48.780;9.212;2024-02-26T05:13:25;1.20;;;0.83;;
19257;SDS011;9763;48.780;9.212;2024-02-26T05:16:48;1.20;;;0.90;;
19257;SDS011;9763;48.780;9.212;2024-02-26T05:20:12;1.30;;;0.90;;
19257;SDS011;9763;48.780;9.212;2024-02-26T05:23:36;1.30;;;0.90;;
19257;SDS011;9763;48.780;9.212;2024-02-26T05:26:59;1.50;;;1.10;;
19257;SDS011;9763;48.780;9.212;2024-02-26T05:30:24;1.40;;;1.00;;
19257;SDS011;9763;48.780;9.212;2024-02-26T05:33:49;1.30;;;1.00;;
19257;SDS011;9763;48.780;9.212;2024-02-26T05:37:13;1.40;;;1.03;;
19257;SDS011;9763;48.780;9.212;2024-02-26T05:40:37;1.67;;;1.13;;
19257;SDS011;9763;48.780;9.212;2024-02-26T05:44:01;1.80;;;1.03;;
19257;SDS011;9763;48.780;9.212;2024-02-26T05:47:26;1.80;;;1.53;;
19257;SDS011;9763;48.780;9.212;2024-02-26T05:50:50;2.17;;;1.37;;
19257;SDS011;9763;48.780;9.212;2024-02-26T05:54:13;1.53;;;1.20;;
19257;SDS011;9763;48.780;9.212;2024-02-26T05:57:37;2.10;;;1.30;;
19257;SDS011;9763;48.780;9.212;2024-02-26T06:01:00;1.30;;;0.97;;
19257;SDS011;9763;48.780;9.212;2024-02-26T06:04:26;1.50;;;1.33;;
19257;SDS011;9763;48.780;9.212;2024-02-26T06:07:50;2.20;;;1.63;;
19257;SDS011;9763;48.780;9.212;2024-02-26T06:11:13;1.40;;;1.23;;
19257;SDS011;9763;48.780;9.212;2024-02-26T06:14:37;1.30;;;1.10;;
19257;SDS011;9763;48.780;9.212;2024-02-26T06:18:01;1.40;;;1.10;;
19257;SDS011;9763;48.780;9.212;2024-02-26T06:21:26;1.60;;;1.20;;
19257;SDS011;9763;48.780;9.212;2024-02-26T06:24:49;1.30;;;1.00;;
19257;SDS011;9763;48.780;9.212;2024-02-26T06:28:13;1.60;;;1.33;;
19257;SDS011;9763;48.780;9.212;2024-02-26T06:31:37;1.80;;;1.00;;
19257;SDS011;9763;48.780;9.212;2024-02-26T06:35:01;1.93;;;1.13;;
19257;SDS011;9763;48.780;9.212;2024-02-26T06:38:30;1.33;;;0.90;;
19257;SDS011;9763;48.780;9.212;2024-02-26T06:41:54;1.30;;;0.87;;
19257;SDS011;9763;48.780;9.212;2024-02-26T06:45:22;1.83;;;1.03;;
19257;SDS011;9763;48.780;9.212;2024-02-26T06:48:47;1.70;;;0.90;;
19257;SDS011;9763;48.780;9.212;2024-02-26T06:52:15;1.50;;;0.93;;
19257;SDS011;9763;48.780;9.212;2024-02-26T06:55:40;1.77;;;1.17;;
19257;SDS011;9763;48.780;9.212;2024-02-26T06:59:04;1.43;;;1.10;;
19257;SDS011;9763;48.780;9.212;2024-02-26T07:02:28;1.80;;;1.40;;
19257;SDS011;9763;48.780;9.212;2024-02-26T07:05:51;1.60;;;1.30;;
19257;SDS011;9763;48.780;9.212;2024-02-26T07:09:15;1.70;;;1.37;;
19257;SDS011;9763;48.780;9.212;2024-02-26T07:12:40;1.90;;;1.43;;
19257;SDS011;9763;48.780;9.212;2024-02-26T07:16:05;1.50;;;1.20;;
19257;SDS011;9763;48.780;9.212;2024-02-26T07:19:29;1.40;;;1.00;;
19257;SDS011;9763;48.780;9.212;2024-02-26T07:22:52;1.40;;;1.03;;
19257;SDS011;9763;48.780;9.212;2024-02-26T07:26:15;1.40;;;0.93;;
19257;SDS011;9763;48.780;9.212;2024-02-26T07:29:42;1.43;;;1.10;;
19257;SDS011;9763;48.780;9.212;2024-02-26T07:33:06;1.33;;;1.00;;
19257;SDS011;9763;48.780;9.212;2024-02-26T07:36:30;1.80;;;0.97;;
19257;SDS011;9763;48.780;9.212;2024-02-26T07:39:54;2.00;;;1.20;;
19257;SDS011;9763;48.780;9.212;2024-02-26T07:43:17;1.93;;;1.20;;
19257;SDS011;9763;48.780;9.212;2024-02-26T07:46:42;1.50;;;1.33;;
19257;SDS011;9763;48.780;9.212;2024-02-26T07:50:06;1.60;;;1.20;;
19257;SDS011;9763;48.780;9.212;2024-02-26T07:53:31;1.40;;;1.20;;
19257;SDS011;9763;48.780;9.212;2024-02-26T07:56:54;2.07;;;1.20;;
19257;SDS011;9763;48.780;9.212;2024-02-26T08:00:18;1.50;;;0.90;;
19257;SDS011;9763;48.780;9.212;2024-02-26T08:03:44;2.13;;;1.13;;
19257;SDS011;9763;48.780;9.212;2024-02-26T08:07:07;1.20;;;0.83;;
19257;SDS011;9763;48.780;9.212;2024-02-26T08:10:31;2.30;;;1.33;;
19257;SDS011;9763;48.780;9.212;2024-02-26T08:13:54;1.83;;;1.47;;
19257;SDS011;9763;48.780;9.212;2024-02-26T08:17:18;2.63;;;1.80;;
19257;SDS011;9763;48.780;9.212;2024-02-26T08:20:43;2.07;;;1.27;;
19257;SDS011;9763;48.780;9.212;2024-02-26T08:24:06;2.37;;;1.27;;
19257;SDS011;9763;48.780;9.212;2024-02-26T08:27:30;1.83;;;1.33;;
19257;SDS011;9763;48.780;9.212;2024-02-26T08:30:54;1.60;;;1.20;;
19257;SDS011;9763;48.780;9.212;2024-02-26T08:34:17;1.60;;;1.30;;
19257;SDS011;9763;48.780;9.212;2024-02-26T08:37:45;2.43;;;1.30;;
19257;SDS011;9763;48.780;9.212;2024-02-26T08:41:09;1.40;;;1.13;;
19257;SDS011;9763;48.780;9.212;2024-02-26T08:44:33;1.53;;;1.10;;
19257;SDS011;9763;48.780;9.212;2024-02-26T08:47:56;1.60;;;1.10;;
19257;SDS011;9763;48.780;9.212;2024-02-26T08:51:21;1.37;;;1.10;;
19257;SDS011;9763;48.780;9.212;2024-02-26T08:54:46;1.30;;;1.10;;
19257;SDS011;9763;48.780;9.212;2024-02-26T08:58:10;1.33;;;1.07;;
19257;SDS011;9763;48.780;9.212;2024-02-26T09:01:33;1.47;;;1.20;;
19257;SDS011;9763;48.780;9.212;2024-02-26T09:04:57;3.00;;;1.43;;
19257;SDS011;9763;48.780;9.212;2024-02-26T09:08:21;1.90;;;1.50;;
19257;SDS011;9763;48.780;9.212;2024-02-26T09:11:46;1.57;;;1.30;;
19257;SDS011;9763;48.780;9.212;2024-02-26T09:15:10;1.60;;;1.40;;
19257;SDS011;9763;48.780;9.212;2024-02-26T09:18:34;1.50;;;1.20;;
19257;SDS011;9763;48.780;9.212;2024-02-26T09:21:58;1.63;;;1.30;;
19257;SDS011;9763;48.780;9.212;2024-02-26T09:25:21;2.60;;;1.40;;
19257;SDS011;9763;48.780;9.212;2024-02-26T09:28:46;2.70;;;1.30;;
19257;SDS011;9763;48.780;9.212;2024-02-26T09:32:10;1.40;;;1.17;;
19257;SDS011;9763;48.780;9.212;2024-02-26T09:35:33;2.33;;;1.40;;
19257;SDS011;9763;48.780;9.212;2024-02-26T09:38:57;2.53;;;1.37;;
19257;SDS011;9763;48.780;9.212;2024-02-26T09:42:23;1.80;;;1.50;;
19257;SDS011;9763;48.780;9.212;2024-02-26T09:45:53;1.60;;;1.40;;
19257;SDS011;9763;48.780;9.212;2024-02-26T09:49:18;1.50;;;1.30;;
19257;SDS011;9763;48.780;9.212;2024-02-26T09:52:46;1.73;;;1.40;;
19257;SDS011;9763;48.780;9.212;2024-02-26T09:56:09;1.83;;;1.50;;
19257;SDS011;9763;48.780;9.212;2024-02-26T09:59:37;1.70;;;1.00;;
19257;SDS011;9763;48.780;9.212;2024-02-26T10:03:05;1.80;;;1.30;;
19257;SDS011;9763;48.780;9.212;2024-02-26T10:06:37;1.90;;;1.40;;
19257;SDS011;9763;48.780;9.212;2024-02-26T10:10:02;1.90;;;1.30;;
19257;SDS011;9763;48.780;9.212;2024-02-26T10:13:27;2.07;;;1.50;;
19257;SDS011;9763;48.780;9.212;2024-02-26T10:16:51;2.10;;;1.67;;
19257;SDS011;9763;48.780;9.212;2024-02-26T10:20:17;2.43;;;1.83;;
19257;SDS011;9763;48.780;9.212;2024-02-26T10:23:44;2.37;;;1.90;;
19257;SDS011;9763;48.780;9.212;2024-02-26T10:27:09;2.30;;;1.77;;
19257;SDS011;9763;48.780;9.212;2024-02-26T10:30:36;2.57;;;1.93;;
19257;SDS011;9763;48.780;9.212;2024-02-26T10:34:00;3.70;;;2.30;;
19257;SDS011;9763;48.780;9.212;2024-02-26T10:37:28;2.43;;;2.00;;
19257;SDS011;9763;48.780;9.212;2024-02-26T10:40:51;1.80;;;1.60;;
19257;SDS011;9763;48.780;9.212;2024-02-26T10:44:15;2.03;;;1.80;;
19257;SDS011;9763;48.780;9.212;2024-02-26T10:47:40;2.13;;;1.50;;
19257;SDS011;9763;48.780;9.212;2024-02-26T10:51:04;1.90;;;1.60;;
19257;SDS011;9763;48.780;9.212;2024-02-26T10:54:31;2.80;;;1.40;;
19257;SDS011;9763;48.780;9.212;2024-02-26T10:57:57;1.83;;;1.37;;
19257;SDS011;9763;48.780;9.212;2024-02-26T11:01:21;2.00;;;1.50;;
19257;SDS011;9763;48.780;9.212;2024-02-26T11:04:47;2.23;;;1.47;;
19257;SDS011;9763;48.780;9.212;2024-02-26T11:08:11;1.90;;;1.70;;
19257;SDS011;9763;48.780;9.212;2024-02-26T11:11:37;3.10;;;1.60;;
19257;SDS011;9763;48.780;9.212;2024-02-26T11:15:02;1.60;;;1.40;;
19257;SDS011;9763;48.780;9.212;2024-02-26T11:18:27;2.50;;;1.40;;
19257;SDS011;9763;48.780;9.212;2024-02-26T11:21:52;1.87;;;1.20;;
19257;SDS011;9763;48.780;9.212;2024-02-26T11:25:16;1.53;;;1.30;;
19257;SDS011;9763;48.780;9.212;2024-02-26T11:28:42;3.40;;;1.60;;
19257;SDS011;9763;48.780;9.212;2024-02-26T11:32:07;2.77;;;1.67;;
19257;SDS011;9763;48.780;9.212;2024-02-26T11:35:31;1.63;;;1.33;;
19257;SDS011;9763;48.780;9.212;2024-02-26T11:38:54;2.93;;;1.50;;
19257;SDS011;9763;48.780;9.212;2024-02-26T11:42:22;1.90;;;1.33;;
19257;SDS011;9763;48.780;9.212;2024-02-26T11:45:49;1.80;;;1.40;;
19257;SDS011;9763;48.780;9.212;2024-02-26T11:49:30;2.67;;;1.40;;
19257;SDS011;9763;48.780;9.212;2024-02-26T11:56:43;1.60;;;1.50;;
19257;SDS011;9763;48.780;9.212;2024-02-26T12:00:12;1.60;;;1.33;;
19257;SDS011;9763;48.780;9.212;2024-02-26T12:03:40;1.83;;;1.20;;
19257;SDS011;9763;48.780;9.212;2024-02-26T12:07:04;1.50;;;1.20;;
19257;SDS011;9763;48.780;9.212;2024-02-26T12:10:30;1.90;;;1.37;;
19257;SDS011;9763;48.780;9.212;2024-02-26T12:13:57;1.90;;;1.40;;
19257;SDS011;9763;48.780;9.212;2024-02-26T12:17:22;1.77;;;1.30;;
19257;SDS011;9763;48.780;9.212;2024-02-26T12:20:48;2.20;;;1.60;;
19257;SDS011;9763;48.780;9.212;2024-02-26T12:24:22;1.70;;;1.57;;
19257;SDS011;9763;48.780;9.212;2024-02-26T12:27:45;2.73;;;1.90;;
19257;SDS011;9763;48.780;9.212;2024-02-26T12:31:09;3.07;;;1.67;;
19257;SDS011;9763;48.780;9.212;2024-02-26T12:34:33;2.30;;;1.53;;
19257;SDS011;9763;48.780;9.212;2024-02-26T12:37:58;2.80;;;1.40;;
19257;SDS011;9763;48.780;9.212;2024-02-26T12:41:22;2.00;;;1.60;;
19257;SDS011;9763;48.780;9.212;2024-02-26T12:44:46;1.63;;;1.20;;
19257;SDS011;9763;48.780;9.212;2024-02-26T12:48:10;2.00;;;1.50;;
19257;SDS011;9763;48.780;9.212;2024-02-26T12:51:35;1.80;;;1.40;;
19257;SDS011;9763;48.780;9.212;2024-02-26T12:55:01;2.20;;;1.33;;
19257;SDS011;9763;48.780;9.212;2024-02-26T12:58:27;2.53;;;1.40;;
19257;SDS011;9763;48.780;9.212;2024-02-26T13:01:53;2.27;;;1.40;;
19257;SDS011;9763;48.780;9.212;2024-02-26T13:05:18;2.07;;;1.60;;
19257;SDS011;9763;48.780;9.212;2024-02-26T13:08:42;1.60;;;1.40;;
19257;SDS011;9763;48.780;9.212;2024-02-26T13:12:08;2.27;;;1.60;;
19257;SDS011;9763;48.780;9.212;2024-02-26T13:15:32;1.60;;;1.10;;
19257;SDS011;9763;48.780;9.212;2024-02-26T13:18:56;1.80;;;1.30;;
19257;SDS011;9763;48.780;9.212;2024-02-26T13:22:20;1.40;;;1.10;;
19257;SDS011;9763;48.780;9.212;2024-02-26T13:25:44;1.40;;;1.00;;
19257;SDS011;9763;48.780;9.212;2024-02-26T13:29:09;1.30;;;0.90;;
19257;SDS011;9763;48.780;9.212;2024-02-26T13:32:40;1.50;;;0.80;;
19257;SDS011;9763;48.780;9.212;2024-02-26T13:36:05;1.40;;;0.90;;
19257;SDS011;9763;48.780;9.212;2024-02-26T13:39:30;2.90;;;1.20;;
19257;SDS011;9763;48.780;9.212;2024-02-26T13:42:54;1.23;;;0.80;;
19257;SDS011;9763;48.780;9.212;2024-02-26T13:46:19;1.30;;;0.97;;
19257;SDS011;9763;48.780;9.212;2024-02-26T13:49:43;1.20;;;0.70;;
19257;SDS011;9763;48.780;9.212;2024-02-26T13:53:07;1.30;;;0.80;;
19257;SDS011;9763;48.780;9.212;2024-02-26T13:56:30;1.77;;;0.90;;
19257;SDS011;9763;48.780;9.212;2024-02-26T13:59:55;2.70;;;0.97;;
19257;SDS011;9763;48.780;9.212;2024-02-26T14:03:20;1.23;;;0.80;;
19257;SDS011;9763;48.780;9.212;2024-02-26T14:06:43;1.30;;;0.73;;
19257;SDS011;9763;48.780;9.212;2024-02-26T14:10:07;1.30;;;0.80;;
19257;SDS011;9763;48.780;9.212;2024-02-26T14:13:34;1.20;;;0.70;;
19257;SDS011;9763;48.780;9.212;2024-02-26T14:17:02;1.10;;;0.60;;
19257;SDS011;9763;48.780;9.212;2024-02-26T14:20:27;1.20;;;0.60;;
19257;SDS011;9763;48.780;9.212;2024-02-26T14:23:51;1.30;;;0.73;;
19257;SDS011;9763;48.780;9.212;2024-02-26T14:27:15;1.20;;;0.70;;
19257;SDS011;9763;48.780;9.212;2024-02-26T14:30:39;1.10;;;0.60;;
19257;SDS011;9763;48.780;9.212;2024-02-26T14:34:02;1.20;;;0.70;;
19257;SDS011;9763;48.780;9.212;2024-02-26T14:37:27;1.20;;;0.70;;
19257;SDS011;9763;48.780;9.212;2024-02-26T14:40:51;1.10;;;0.67;;
19257;SDS011;9763;48.780;9.212;2024-02-26T14:44:14;1.77;;;0.70;;
19257;SDS011;9763;48.780;9.212;2024-02-26T14:47:38;1.10;;;0.60;;
19257;SDS011;9763;48.780;9.212;2024-02-26T14:51:02;1.10;;;0.60;;
19257;SDS011;9763;48.780;9.212;2024-02-26T14:54:29;1.10;;;0.60;;
19257;SDS011;9763;48.780;9.212;2024-02-26T14:57:54;1.30;;;0.70;;
19257;SDS011;9763;48.780;9.212;2024-02-26T15:01:18;1.20;;;0.80;;
19257;SDS011;9763;48.780;9.212;2024-02-26T15:04:42;1.30;;;0.90;;
19257;SDS011;9763;48.780;9.212;2024-02-26T15:08:07;1.40;;;0.90;;
19257;SDS011;9763;48.780;9.212;2024-02-26T15:11:39;1.20;;;0.80;;
19257;SDS011;9763;48.780;9.212;2024-02-26T15:15:03;1.30;;;0.80;;
19257;SDS011;9763;48.780;9.212;2024-02-26T15:18:28;1.60;;;1.10;;
19257;SDS011;9763;48.780;9.212;2024-02-26T15:21:52;1.40;;;1.00;;
19257;SDS011;9763;48.780;9.212;2024-02-26T15:25:15;1.30;;;0.90;;
19257;SDS011;9763;48.780;9.212;2024-02-26T15:28:41;1.47;;;1.17;;
19257;SDS011;9763;48.780;9.212;2024-02-26T15:32:04;1.53;;;1.03;;
19257;SDS011;9763;48.780;9.212;2024-02-26T15:35:28;2.03;;;1.10;;
19257;SDS011;9763;48.780;9.212;2024-02-26T15:38:52;1.47;;;1.03;;
19257;SDS011;9763;48.780;9.212;2024-02-26T15:42:16;1.40;;;0.80;;
19257;SDS011;9763;48.780;9.212;2024-02-26T15:45:41;1.70;;;1.30;;
19257;SDS011;9763;48.780;9.212;2024-02-26T15:49:05;1.47;;;1.03;;
19257;SDS011;9763;48.780;9.212;2024-02-26T15:52:28;1.70;;;1.00;;
19257;SDS011;9763;48.780;9.212;2024-02-26T15:55:52;1.97;;;1.17;;
19257;SDS011;9763;48.780;9.212;2024-02-26T15:59:16;2.33;;;1.20;;
19257;SDS011;9763;48.780;9.212;2024-02-26T16:02:42;1.73;;;1.20;;
19257;SDS011;9763;48.780;9.212;2024-02-26T16:06:11;1.50;;;1.10;;
19257;SDS011;9763;48.780;9.212;2024-02-26T16:09:42;5.53;;;1.60;;
19257;SDS011;9763;48.780;9.212;2024-02-26T16:13:06;1.30;;;0.97;;
19257;SDS011;9763;48.780;9.212;2024-02-26T16:16:31;1.60;;;1.10;;
19257;SDS011;9763;48.780;9.212;2024-02-26T16:19:58;1.40;;;1.00;;
19257;SDS011;9763;48.780;9.212;2024-02-26T16:23:25;1.23;;;0.87;;
19257;SDS011;9763;48.780;9.212;2024-02-26T16:26:49;1.33;;;0.97;;
19257;SDS011;9763;48.780;9.212;2024-02-26T16:30:13;1.70;;;1.00;;
19257;SDS011;9763;48.780;9.212;2024-02-26T16:33:36;1.40;;;1.00;;
19257;SDS011;9763;48.780;9.212;2024-02-26T16:37:04;2.50;;;1.37;;
19257;SDS011;9763;48.780;9.212;2024-02-26T16:40:32;1.43;;;1.00;;
19257;SDS011;9763;48.780;9.212;2024-02-26T16:43:58;1.60;;;1.33;;
19257;SDS011;9763;48.780;9.212;2024-02-26T16:47:21;1.93;;;1.27;;
19257;SDS011;9763;48.780;9.212;2024-02-26T16:50:46;2.20;;;1.67;;
19257;SDS011;9763;48.780;9.212;2024-02-26T16:54:12;4.00;;;1.40;;
19257;SDS011;9763;48.780;9.212;2024-02-26T16:57:36;2.33;;;1.37;;
19257;SDS011;9763;48.780;9.212;2024-02-26T17:01:00;1.80;;;1.30;;
19257;SDS011;9763;48.780;9.212;2024-02-26T17:04:27;1.53;;;1.13;;
19257;SDS011;9763;48.780;9.212;2024-02-26T17:07:51;1.73;;;1.10;;
19257;SDS011;9763;48.780;9.212;2024-02-26T17:11:15;2.03;;;1.60;;
19257;SDS011;9763;48.780;9.212;2024-02-26T17:14:39;2.23;;;1.70;;
19257;SDS011;9763;48.780;9.212;2024-02-26T17:18:07;1.60;;;1.30;;
19257;SDS011;9763;48.780;9.212;2024-02-26T17:21:34;1.90;;;1.50;;
19257;SDS011;9763;48.780;9.212;2024-02-26T17:24:59;2.40;;;1.30;;
19257;SDS011;9763;48.780;9.212;2024-02-26T17:28:24;2.10;;;1.47;;
19257;SDS011;9763;48.780;9.212;2024-02-26T17:31:48;1.50;;;1.30;;
19257;SDS011;9763;48.780;9.212;2024-02-26T17:35:12;1.50;;;1.03;;
19257;SDS011;9763;48.780;9.212;2024-02-26T17:38:37;1.53;;;1.17;;
19257;SDS011;9763;48.780;9.212;2024-02-26T17:42:02;1.70;;;1.17;;
19257;SDS011;9763;48.780;9.212;2024-02-26T17:45:27;1.50;;;1.10;;
19257;SDS011;9763;48.780;9.212;2024-02-26T17:48:51;2.00;;;1.30;;
19257;SDS011;9763;48.780;9.212;2024-02-26T17:52:15;3.60;;;1.53;;
19257;SDS011;9763;48.780;9.212;2024-02-26T17:55:38;2.00;;;1.30;;
19257;SDS011;9763;48.780;9.212;2024-02-26T17:59:02;4.90;;;1.70;;
19257;SDS011;9763;48.780;9.212;2024-02-26T18:02:27;1.70;;;1.10;;
19257;SDS011;9763;48.780;9.212;2024-02-26T18:05:51;1.60;;;1.13;;
19257;SDS011;9763;48.780;9.212;2024-02-26T18:09:15;1.80;;;1.30;;
19257;SDS011;9763;48.780;9.212;2024-02-26T18:12:39;1.80;;;1.37;;
19257;SDS011;9763;48.780;9.212;2024-02-26T18:16:03;3.73;;;2.20;;
19257;SDS011;9763;48.780;9.212;2024-02-26T18:19:28;2.37;;;1.77;;
19257;SDS011;9763;48.780;9.212;2024-02-26T18:22:52;2.00;;;1.60;;
19257;SDS011;9763;48.780;9.212;2024-02-26T18:26:16;1.80;;;1.30;;
19257;SDS011;9763;48.780;9.212;2024-02-26T18:29:43;1.80;;;1.37;;
19257;SDS011;9763;48.780;9.212;2024-02-26T18:33:07;1.53;;;1.17;;
19257;SDS011;9763;48.780;9.212;2024-02-26T18:36:32;1.70;;;1.37;;
19257;SDS011;9763;48.780;9.212;2024-02-26T18:39:55;2.00;;;1.30;;
19257;SDS011;9763;48.780;9.212;2024-02-26T18:43:19;1.70;;;1.40;;
19257;SDS011;9763;48.780;9.212;2024-02-26T18:46:43;1.40;;;1.00;;
19257;SDS011;9763;48.780;9.212;2024-02-26T18:50:08;1.37;;;1.07;;
19257;SDS011;9763;48.780;9.212;2024-02-26T18:53:33;1.80;;;1.30;;
19257;SDS011;9763;48.780;9.212;2024-02-26T18:56:57;1.90;;;1.40;;
19257;SDS011;9763;48.780;9.212;2024-02-26T19:00:20;1.50;;;1.17;;
19257;SDS011;9763;48.780;9.212;2024-02-26T19:03:44;2.00;;;1.50;;
19257;SDS011;9763;48.780;9.212;2024-02-26T19:07:08;1.63;;;1.40;;
19257;SDS011;9763;48.780;9.212;2024-02-26T19:10:33;3.20;;;1.63;;
19257;SDS011;9763;48.780;9.212;2024-02-26T19:13:57;1.73;;;1.20;;
19257;SDS011;9763;48.780;9.212;2024-02-26T19:17:21;1.60;;;1.33;;
19257;SDS011;9763;48.780;9.212;2024-02-26T19:20:45;1.70;;;1.50;;
19257;SDS011;9763;48.780;9.212;2024-02-26T19:24:10;1.50;;;1.13;;
19257;SDS011;9763;48.780;9.212;2024-02-26T19:27:36;1.77;;;1.30;;
19257;SDS011;9763;48.780;9.212;2024-02-26T19:31:00;1.67;;;1.20;;
19257;SDS011;9763;48.780;9.212;2024-02-26T19:34:24;1.60;;;1.23;;
19257;SDS011;9763;48.780;9.212;2024-02-26T19:37:47;1.60;;;1.10;;
19257;SDS011;9763;48.780;9.212;2024-02-26T19:41:11;1.90;;;1.40;;
19257;SDS011;9763;48.780;9.212;2024-02-26T19:44:36;2.20;;;1.20;;
19257;SDS011;9763;48.780;9.212;2024-02-26T19:48:00;1.40;;;1.10;;
19257;SDS011;9763;48.780;9.212;2024-02-26T19:51:24;2.10;;;1.20;;
19257;SDS011;9763;48.780;9.212;2024-02-26T19:54:47;1.90;;;1.30;;
19257;SDS011;9763;48.780;9.212;2024-02-26T19:58:11;1.80;;;1.20;;
19257;SDS011;9763;48.780;9.212;2024-02-26T20:01:36;1.70;;;1.20;;
19257;SDS011;9763;48.780;9.212;2024-02-26T20:05:00;1.60;;;1.40;;
19257;SDS011;9763;48.780;9.212;2024-02-26T20:08:23;1.60;;;1.23;;
19257;SDS011;9763;48.780;9.212;2024-02-26T20:11:48;2.47;;;1.70;;
19257;SDS011;9763;48.780;9.212;2024-02-26T20:15:12;2.07;;;1.60;;
19257;SDS011;9763;48.780;9.212;2024-02-26T20:18:37;2.33;;;1.77;;
19257;SDS011;9763;48.780;9.212;2024-02-26T20:22:01;1.93;;;1.50;;
19257;SDS011;9763;48.780;9.212;2024-02-26T20:25:25;1.90;;;1.70;;
19257;SDS011;9763;48.780;9.212;2024-02-26T20:28:49;1.80;;;1.30;;
19257;SDS011;9763;48.780;9.212;2024-02-26T20:32:13;1.60;;;1.40;;
19257;SDS011;9763;48.780;9.212;2024-02-26T20:35:38;1.70;;;1.37;;
19257;SDS011;9763;48.780;9.212;2024-02-26T20:39:02;2.13;;;1.40;;
19257;SDS011;9763;48.780;9.212;2024-02-26T20:42:26;1.73;;;1.37;;
19257;SDS011;9763;48.780;9.212;2024-02-26T20:45:50;2.87;;;1.43;;
19257;SDS011;9763;48.780;9.212;2024-02-26T20:49:14;4.70;;;1.60;;
19257;SDS011;9763;48.780;9.212;2024-02-26T20:52:40;1.60;;;1.20;;